sensor_id;sensor_type;location;lat;lon;timestamp;pressure;altitude;pressure_sealevel;temperature
76381;BMP280;65202;52.520;10.528;2023-04-06T00:01:16;101476.31;;;1.87
76381;BMP280;65202;52.520;10.528;2023-04-06T00:03:44;101476.59;;;1.90
76381;BMP280;65202;52.520;10.528;2023-04-06T00:06:11;101472.69;;;2.11
76381;BMP280;65202;52.520;10.528;2023-04-06T00:08:38;101482.59;;;1.84
76381;BMP280;65202;52.520;10.528;2023-04-06T00:11:05;101463.34;;;2.17
76381;BMP280;65202;52.520;10.528;2023-04-06T00:13:32;101477.16;;;1.96
76381;BMP280;65202;52.520;10.528;2023-04-06T00:16:00;101479.84;;;1.81
76381;BMP280;65202;52.520;10.528;2023-04-06T00:18:27;101476.16;;;1.68
76381;BMP280;65202;52.520;10.528;2023-04-06T00:20:54;101473.31;;;2.00
76381;BMP280;65202;52.520;10.528;2023-04-06T00:23:22;101471.66;;;1.64
76381;BMP280;65202;52.520;10.528;2023-04-06T00:25:49;101465.44;;;1.59
76381;BMP280;65202;52.520;10.528;2023-04-06T00:28:16;101463.53;;;1.65
76381;BMP280;65202;52.520;10.528;2023-04-06T00:30:44;101462.34;;;1.96
76381;BMP280;65202;52.520;10.528;2023-04-06T00:33:11;101454.22;;;1.71
76381;BMP280;65202;52.520;10.528;2023-04-06T00:35:38;101459.53;;;1.75
76381;BMP280;65202;52.520;10.528;2023-04-06T00:38:05;101463.88;;;1.78
76381;BMP280;65202;52.520;10.528;2023-04-06T00:40:33;101461.06;;;1.65
76381;BMP280;65202;52.520;10.528;2023-04-06T00:43:01;101469.94;;;1.27
76381;BMP280;65202;52.520;10.528;2023-04-06T00:45:28;101455.56;;;1.59
76381;BMP280;65202;52.520;10.528;2023-04-06T00:47:56;101468.50;;;1.29
76381;BMP280;65202;52.520;10.528;2023-04-06T00:50:24;101457.66;;;1.54
76381;BMP280;65202;52.520;10.528;2023-04-06T00:52:51;101455.19;;;2.18
76381;BMP280;65202;52.520;10.528;2023-04-06T00:55:18;101456.16;;;1.56
76381;BMP280;65202;52.520;10.528;2023-04-06T00:57:46;101465.53;;;1.42
76381;BMP280;65202;52.520;10.528;2023-04-06T01:00:14;101451.56;;;1.51
76381;BMP280;65202;52.520;10.528;2023-04-06T01:02:42;101456.75;;;1.54
76381;BMP280;65202;52.520;10.528;2023-04-06T01:05:11;101454.84;;;1.33
76381;BMP280;65202;52.520;10.528;2023-04-06T01:07:39;101453.59;;;1.46
76381;BMP280;65202;52.520;10.528;2023-04-06T01:10:06;101451.56;;;1.24
76381;BMP280;65202;52.520;10.528;2023-04-06T01:12:34;101448.53;;;1.45
76381;BMP280;65202;52.520;10.528;2023-04-06T01:15:01;101449.81;;;1.23
76381;BMP280;65202;52.520;10.528;2023-04-06T01:17:28;101448.03;;;1.30
76381;BMP280;65202;52.520;10.528;2023-04-06T01:19:55;101451.25;;;1.21
76381;BMP280;65202;52.520;10.528;2023-04-06T01:22:23;101446.16;;;0.84
76381;BMP280;65202;52.520;10.528;2023-04-06T01:24:51;101447.97;;;1.12
76381;BMP280;65202;52.520;10.528;2023-04-06T01:27:18;101438.88;;;1.38
76381;BMP280;65202;52.520;10.528;2023-04-06T01:29:45;101440.31;;;1.36
76381;BMP280;65202;52.520;10.528;2023-04-06T01:32:12;101445.03;;;1.16
76381;BMP280;65202;52.520;10.528;2023-04-06T01:34:39;101433.97;;;1.29
76381;BMP280;65202;52.520;10.528;2023-04-06T01:37:07;101434.59;;;1.19
76381;BMP280;65202;52.520;10.528;2023-04-06T01:39:34;101434.34;;;0.99
76381;BMP280;65202;52.520;10.528;2023-04-06T01:42:01;101434.41;;;0.90
76381;BMP280;65202;52.520;10.528;2023-04-06T01:44:29;101435.91;;;0.71
76381;BMP280;65202;52.520;10.528;2023-04-06T01:46:59;101431.94;;;0.90
76381;BMP280;65202;52.520;10.528;2023-04-06T01:49:26;101424.44;;;0.80
76381;BMP280;65202;52.520;10.528;2023-04-06T01:51:53;101430.22;;;0.72
76381;BMP280;65202;52.520;10.528;2023-04-06T01:54:21;101431.72;;;0.70
76381;BMP280;65202;52.520;10.528;2023-04-06T01:56:48;101431.97;;;1.17
76381;BMP280;65202;52.520;10.528;2023-04-06T01:59:17;101435.16;;;0.81
76381;BMP280;65202;52.520;10.528;2023-04-06T02:01:44;101434.75;;;0.76
76381;BMP280;65202;52.520;10.528;2023-04-06T02:04:12;101429.88;;;0.43
76381;BMP280;65202;52.520;10.528;2023-04-06T02:06:40;101426.06;;;0.71
76381;BMP280;65202;52.520;10.528;2023-04-06T02:09:08;101432.22;;;0.93
76381;BMP280;65202;52.520;10.528;2023-04-06T02:11:35;101424.25;;;0.87
76381;BMP280;65202;52.520;10.528;2023-04-06T02:14:03;101431.00;;;0.55
76381;BMP280;65202;52.520;10.528;2023-04-06T02:16:30;101431.00;;;0.55
76381;BMP280;65202;52.520;10.528;2023-04-06T02:18:57;101424.25;;;0.87
76381;BMP280;65202;52.520;10.528;2023-04-06T02:21:24;101424.19;;;0.61
76381;BMP280;65202;52.520;10.528;2023-04-06T02:23:52;101424.94;;;0.43
76381;BMP280;65202;52.520;10.528;2023-04-06T02:26:19;101423.47;;;0.53
76381;BMP280;65202;52.520;10.528;2023-04-06T02:28:47;101423.75;;;0.56
76381;BMP280;65202;52.520;10.528;2023-04-06T02:31:14;101432.75;;;0.05
76381;BMP280;65202;52.520;10.528;2023-04-06T02:33:42;101426.06;;;0.55
76381;BMP280;65202;52.520;10.528;2023-04-06T02:36:09;101415.63;;;0.65
76381;BMP280;65202;52.520;10.528;2023-04-06T02:38:36;101421.00;;;0.53
76381;BMP280;65202;52.520;10.528;2023-04-06T02:41:04;101419.72;;;0.40
76381;BMP280;65202;52.520;10.528;2023-04-06T02:43:32;101416.03;;;1.14
76381;BMP280;65202;52.520;10.528;2023-04-06T02:45:59;101416.34;;;0.64
76381;BMP280;65202;52.520;10.528;2023-04-06T02:48:26;101424.63;;;0.48
76381;BMP280;65202;52.520;10.528;2023-04-06T02:50:54;101429.75;;;-0.01
76381;BMP280;65202;52.520;10.528;2023-04-06T02:53:21;101424.81;;;0.93
76381;BMP280;65202;52.520;10.528;2023-04-06T02:55:48;101422.03;;;0.47
76381;BMP280;65202;52.520;10.528;2023-04-06T02:58:15;101420.03;;;0.43
76381;BMP280;65202;52.520;10.528;2023-04-06T03:00:42;101413.94;;;0.22
76381;BMP280;65202;52.520;10.528;2023-04-06T03:03:10;101420.16;;;0.36
76381;BMP280;65202;52.520;10.528;2023-04-06T03:05:37;101423.06;;;-0.02
76381;BMP280;65202;52.520;10.528;2023-04-06T03:08:04;101429.31;;;0.11
76381;BMP280;65202;52.520;10.528;2023-04-06T03:10:31;101429.56;;;-0.36
76381;BMP280;65202;52.520;10.528;2023-04-06T03:12:59;101431.72;;;-0.31
76381;BMP280;65202;52.520;10.528;2023-04-06T03:15:26;101423.19;;;0.25
76381;BMP280;65202;52.520;10.528;2023-04-06T03:17:53;101425.09;;;0.02
76381;BMP280;65202;52.520;10.528;2023-04-06T03:20:20;101422.91;;;-0.20
76381;BMP280;65202;52.520;10.528;2023-04-06T03:22:47;101428.88;;;0.07
76381;BMP280;65202;52.520;10.528;2023-04-06T03:25:15;101421.34;;;0.05
76381;BMP280;65202;52.520;10.528;2023-04-06T03:27:42;101436.03;;;-0.37
76381;BMP280;65202;52.520;10.528;2023-04-06T03:30:09;101425.81;;;0.01
76381;BMP280;65202;52.520;10.528;2023-04-06T03:32:37;101423.78;;;-0.03
76381;BMP280;65202;52.520;10.528;2023-04-06T03:35:04;101419.00;;;-0.02
76381;BMP280;65202;52.520;10.528;2023-04-06T03:37:32;101426.50;;;-0.25
76381;BMP280;65202;52.520;10.528;2023-04-06T03:39:59;101427.84;;;-0.03
76381;BMP280;65202;52.520;10.528;2023-04-06T03:42:26;101422.97;;;-0.53
76381;BMP280;65202;52.520;10.528;2023-04-06T03:44:53;101429.03;;;0.00
76381;BMP280;65202;52.520;10.528;2023-04-06T03:47:20;101427.94;;;-0.36
76381;BMP280;65202;52.520;10.528;2023-04-06T03:49:48;101431.72;;;-0.31
76381;BMP280;65202;52.520;10.528;2023-04-06T03:52:15;101432.59;;;-0.22
76381;BMP280;65202;52.520;10.528;2023-04-06T03:54:42;101433.75;;;-0.27
76381;BMP280;65202;52.520;10.528;2023-04-06T03:57:09;101431.19;;;-0.03
76381;BMP280;65202;52.520;10.528;2023-04-06T03:59:36;101431.00;;;-0.21
76381;BMP280;65202;52.520;10.528;2023-04-06T04:02:04;101444.84;;;-0.47
76381;BMP280;65202;52.520;10.528;2023-04-06T04:04:31;101439.94;;;-0.47
76381;BMP280;65202;52.520;10.528;2023-04-06T04:06:58;101436.91;;;-0.45
76381;BMP280;65202;52.520;10.528;2023-04-06T04:09:26;101442.50;;;-0.63
76381;BMP280;65202;52.520;10.528;2023-04-06T04:11:55;101433.03;;;-0.26
76381;BMP280;65202;52.520;10.528;2023-04-06T04:14:23;101431.88;;;-0.21
76381;BMP280;65202;52.520;10.528;2023-04-06T04:16:50;101429.44;;;0.13
76381;BMP280;65202;52.520;10.528;2023-04-06T04:19:17;101435.78;;;-0.31
76381;BMP280;65202;52.520;10.528;2023-04-06T04:21:45;101442.31;;;-0.23
76381;BMP280;65202;52.520;10.528;2023-04-06T04:24:13;101437.00;;;-0.68
76381;BMP280;65202;52.520;10.528;2023-04-06T04:26:41;101439.06;;;-0.88
76381;BMP280;65202;52.520;10.528;2023-04-06T04:29:08;101445.16;;;-0.85
76381;BMP280;65202;52.520;10.528;2023-04-06T04:31:35;101441.63;;;-0.95
76381;BMP280;65202;52.520;10.528;2023-04-06T04:34:03;101437.34;;;-0.40
76381;BMP280;65202;52.520;10.528;2023-04-06T04:36:30;101439.97;;;-0.39
76381;BMP280;65202;52.520;10.528;2023-04-06T04:38:58;101439.28;;;-0.21
76381;BMP280;65202;52.520;10.528;2023-04-06T04:41:27;101443.53;;;-0.52
76381;BMP280;65202;52.520;10.528;2023-04-06T04:43:55;101434.47;;;-0.28
76381;BMP280;65202;52.520;10.528;2023-04-06T04:46:22;101440.41;;;-0.34
76381;BMP280;65202;52.520;10.528;2023-04-06T04:48:49;101443.97;;;-0.48
76381;BMP280;65202;52.520;10.528;2023-04-06T04:51:17;101453.06;;;-0.63
76381;BMP280;65202;52.520;10.528;2023-04-06T04:53:44;101444.28;;;-0.85
76381;BMP280;65202;52.520;10.528;2023-04-06T04:56:11;101445.38;;;-0.66
76381;BMP280;65202;52.520;10.528;2023-04-06T04:58:38;101451.22;;;-0.58
76381;BMP280;65202;52.520;10.528;2023-04-06T05:01:06;101446.19;;;-0.25
76381;BMP280;65202;52.520;10.528;2023-04-06T05:03:33;101449.03;;;-0.55
76381;BMP280;65202;52.520;10.528;2023-04-06T05:06:01;101449.13;;;-0.62
76381;BMP280;65202;52.520;10.528;2023-04-06T05:08:28;101448.31;;;-0.54
76381;BMP280;65202;52.520;10.528;2023-04-06T05:10:56;101441.66;;;-0.55
76381;BMP280;65202;52.520;10.528;2023-04-06T05:13:23;101435.34;;;-0.76
76381;BMP280;65202;52.520;10.528;2023-04-06T05:15:50;101446.75;;;-0.45
76381;BMP280;65202;52.520;10.528;2023-04-06T05:18:17;101441.72;;;-0.29
76381;BMP280;65202;52.520;10.528;2023-04-06T05:20:45;101442.00;;;-0.35
76381;BMP280;65202;52.520;10.528;2023-04-06T05:23:12;101447.28;;;-0.56
76381;BMP280;65202;52.520;10.528;2023-04-06T05:25:39;101436.75;;;-0.38
76381;BMP280;65202;52.520;10.528;2023-04-06T05:28:07;101440.59;;;-0.16
76381;BMP280;65202;52.520;10.528;2023-04-06T05:30:34;101435.91;;;-0.38
76381;BMP280;65202;52.520;10.528;2023-04-06T05:33:02;101436.47;;;-0.41
76381;BMP280;65202;52.520;10.528;2023-04-06T05:35:29;101447.22;;;-0.23
76381;BMP280;65202;52.520;10.528;2023-04-06T05:37:57;101440.28;;;0.15
76381;BMP280;65202;52.520;10.528;2023-04-06T05:40:24;101433.34;;;0.19
76381;BMP280;65202;52.520;10.528;2023-04-06T05:42:52;101431.19;;;0.14
76381;BMP280;65202;52.520;10.528;2023-04-06T05:45:19;101440.59;;;0.43
76381;BMP280;65202;52.520;10.528;2023-04-06T05:47:47;101439.44;;;0.23
76381;BMP280;65202;52.520;10.528;2023-04-06T05:50:15;101436.50;;;0.61
76381;BMP280;65202;52.520;10.528;2023-04-06T05:52:42;101437.34;;;0.69
76381;BMP280;65202;52.520;10.528;2023-04-06T05:55:11;101436.13;;;0.91
76381;BMP280;65202;52.520;10.528;2023-04-06T05:57:39;101428.72;;;1.80
76381;BMP280;65202;52.520;10.528;2023-04-06T06:00:06;101442.84;;;1.99
76381;BMP280;65202;52.520;10.528;2023-04-06T06:02:36;101424.84;;;2.29
76381;BMP280;65202;52.520;10.528;2023-04-06T06:05:04;101426.25;;;3.50
76381;BMP280;65202;52.520;10.528;2023-04-06T06:07:31;101425.75;;;3.93
76381;BMP280;65202;52.520;10.528;2023-04-06T06:09:58;101421.81;;;3.56
76381;BMP280;65202;52.520;10.528;2023-04-06T06:12:26;101418.31;;;4.54
76381;BMP280;65202;52.520;10.528;2023-04-06T06:14:54;101424.06;;;4.43
76381;BMP280;65202;52.520;10.528;2023-04-06T06:17:22;101415.19;;;4.26
76381;BMP280;65202;52.520;10.528;2023-04-06T06:19:49;101418.97;;;3.81
76381;BMP280;65202;52.520;10.528;2023-04-06T06:22:16;101423.19;;;3.72
76381;BMP280;65202;52.520;10.528;2023-04-06T06:24:44;101426.59;;;4.04
76381;BMP280;65202;52.520;10.528;2023-04-06T06:27:11;101421.81;;;4.99
76381;BMP280;65202;52.520;10.528;2023-04-06T06:29:38;101416.03;;;4.67
76381;BMP280;65202;52.520;10.528;2023-04-06T06:32:06;101412.31;;;4.94
76381;BMP280;65202;52.520;10.528;2023-04-06T06:34:35;101421.25;;;5.13
76381;BMP280;65202;52.520;10.528;2023-04-06T06:37:02;101418.31;;;4.86
76381;BMP280;65202;52.520;10.528;2023-04-06T06:39:29;101419.50;;;5.00
76381;BMP280;65202;52.520;10.528;2023-04-06T06:41:57;101408.59;;;5.31
76381;BMP280;65202;52.520;10.528;2023-04-06T06:44:27;101419.22;;;5.40
76381;BMP280;65202;52.520;10.528;2023-04-06T06:46:55;101410.56;;;6.35
76381;BMP280;65202;52.520;10.528;2023-04-06T06:49:22;101411.31;;;6.34
76381;BMP280;65202;52.520;10.528;2023-04-06T06:51:49;101404.50;;;5.97
76381;BMP280;65202;52.520;10.528;2023-04-06T06:54:16;101417.00;;;5.87
76381;BMP280;65202;52.520;10.528;2023-04-06T06:56:44;101403.53;;;7.35
76381;BMP280;65202;52.520;10.528;2023-04-06T06:59:12;101403.00;;;6.22
76381;BMP280;65202;52.520;10.528;2023-04-06T07:01:39;101401.28;;;6.32
76381;BMP280;65202;52.520;10.528;2023-04-06T07:04:06;101398.00;;;7.76
76381;BMP280;65202;52.520;10.528;2023-04-06T07:06:36;101394.19;;;7.81
76381;BMP280;65202;52.520;10.528;2023-04-06T07:09:03;101397.19;;;8.53
76381;BMP280;65202;52.520;10.528;2023-04-06T07:11:30;101399.25;;;8.20
76381;BMP280;65202;52.520;10.528;2023-04-06T07:13:57;101393.06;;;9.07
76381;BMP280;65202;52.520;10.528;2023-04-06T07:16:25;101388.16;;;8.68
76381;BMP280;65202;52.520;10.528;2023-04-06T07:18:52;101388.38;;;9.26
76381;BMP280;65202;52.520;10.528;2023-04-06T07:21:19;101369.13;;;9.38
76381;BMP280;65202;52.520;10.528;2023-04-06T07:23:47;101380.00;;;9.67
76381;BMP280;65202;52.520;10.528;2023-04-06T07:26:15;101399.03;;;9.09
76381;BMP280;65202;52.520;10.528;2023-04-06T07:28:42;101390.19;;;9.84
76381;BMP280;65202;52.520;10.528;2023-04-06T07:31:09;101380.56;;;10.19
76381;BMP280;65202;52.520;10.528;2023-04-06T07:33:36;101377.72;;;10.43
76381;BMP280;65202;52.520;10.528;2023-04-06T07:36:04;101377.94;;;11.24
76381;BMP280;65202;52.520;10.528;2023-04-06T07:38:31;101374.78;;;11.12
76381;BMP280;65202;52.520;10.528;2023-04-06T07:40:59;101372.72;;;12.19
76381;BMP280;65202;52.520;10.528;2023-04-06T07:43:27;101369.03;;;12.65
76381;BMP280;65202;52.520;10.528;2023-04-06T07:45:54;101369.03;;;12.65
76381;BMP280;65202;52.520;10.528;2023-04-06T07:48:21;101366.72;;;13.06
76381;BMP280;65202;52.520;10.528;2023-04-06T07:50:49;101360.22;;;13.48
76381;BMP280;65202;52.520;10.528;2023-04-06T07:53:16;101369.72;;;12.26
76381;BMP280;65202;52.520;10.528;2023-04-06T07:55:43;101361.16;;;14.53
76381;BMP280;65202;52.520;10.528;2023-04-06T07:58:11;101350.34;;;15.01
76381;BMP280;65202;52.520;10.528;2023-04-06T08:00:38;101354.69;;;13.57
76381;BMP280;65202;52.520;10.528;2023-04-06T08:03:05;101366.56;;;12.84
76381;BMP280;65202;52.520;10.528;2023-04-06T08:05:32;101354.81;;;13.60
76381;BMP280;65202;52.520;10.528;2023-04-06T08:08:00;101359.66;;;14.15
76381;BMP280;65202;52.520;10.528;2023-04-06T08:10:27;101347.63;;;15.18
76381;BMP280;65202;52.520;10.528;2023-04-06T08:12:54;101354.03;;;14.87
76381;BMP280;65202;52.520;10.528;2023-04-06T08:15:21;101356.41;;;14.83
76381;BMP280;65202;52.520;10.528;2023-04-06T08:17:48;101355.31;;;15.45
76381;BMP280;65202;52.520;10.528;2023-04-06T08:20:16;101343.28;;;15.63
76381;BMP280;65202;52.520;10.528;2023-04-06T08:22:43;101344.50;;;15.49
76381;BMP280;65202;52.520;10.528;2023-04-06T08:25:10;101351.50;;;15.32
76381;BMP280;65202;52.520;10.528;2023-04-06T08:27:37;101346.78;;;15.66
76381;BMP280;65202;52.520;10.528;2023-04-06T08:30:05;101345.34;;;15.03
76381;BMP280;65202;52.520;10.528;2023-04-06T08:32:32;101349.66;;;14.82
76381;BMP280;65202;52.520;10.528;2023-04-06T08:35:00;101350.50;;;15.27
76381;BMP280;65202;52.520;10.528;2023-04-06T08:37:27;101351.09;;;14.75
76381;BMP280;65202;52.520;10.528;2023-04-06T08:39:54;101350.56;;;16.30
76381;BMP280;65202;52.520;10.528;2023-04-06T08:42:25;101342.28;;;16.09
76381;BMP280;65202;52.520;10.528;2023-04-06T08:44:53;101341.69;;;15.89
76381;BMP280;65202;52.520;10.528;2023-04-06T08:47:21;101337.69;;;16.22
76381;BMP280;65202;52.520;10.528;2023-04-06T08:49:51;101346.03;;;15.69
76381;BMP280;65202;52.520;10.528;2023-04-06T08:52:20;101344.69;;;15.53
76381;BMP280;65202;52.520;10.528;2023-04-06T08:54:48;101353.84;;;13.97
76381;BMP280;65202;52.520;10.528;2023-04-06T08:57:15;101336.25;;;16.04
76381;BMP280;65202;52.520;10.528;2023-04-06T08:59:44;101358.25;;;14.43
76381;BMP280;65202;52.520;10.528;2023-04-06T09:02:17;101329.06;;;16.42
76381;BMP280;65202;52.520;10.528;2023-04-06T09:04:47;101345.53;;;15.78
76381;BMP280;65202;52.520;10.528;2023-04-06T09:07:17;101347.59;;;15.40
76381;BMP280;65202;52.520;10.528;2023-04-06T09:09:44;101346.13;;;15.47
76381;BMP280;65202;52.520;10.528;2023-04-06T09:12:28;101343.94;;;14.64
76381;BMP280;65202;52.520;10.528;2023-04-06T09:14:57;101325.66;;;16.41
76381;BMP280;65202;52.520;10.528;2023-04-06T09:17:30;101336.59;;;16.14
76381;BMP280;65202;52.520;10.528;2023-04-06T09:20:02;101332.44;;;16.16
76381;BMP280;65202;52.520;10.528;2023-04-06T09:22:38;101331.25;;;16.05
76381;BMP280;65202;52.520;10.528;2023-04-06T09:25:08;101344.41;;;15.95
76381;BMP280;65202;52.520;10.528;2023-04-06T09:27:37;101337.00;;;16.01
76381;BMP280;65202;52.520;10.528;2023-04-06T09:30:09;101311.63;;;16.80
76381;BMP280;65202;52.520;10.528;2023-04-06T09:32:58;101340.44;;;15.29
76381;BMP280;65202;52.520;10.528;2023-04-06T09:35:27;101310.06;;;16.84
76381;BMP280;65202;52.520;10.528;2023-04-06T09:37:56;101313.13;;;16.74
76381;BMP280;65202;52.520;10.528;2023-04-06T09:40:23;101323.84;;;16.11
76381;BMP280;65202;52.520;10.528;2023-04-06T09:42:51;101303.91;;;17.05
76381;BMP280;65202;52.520;10.528;2023-04-06T09:45:19;101313.72;;;15.83
76381;BMP280;65202;52.520;10.528;2023-04-06T09:47:48;101302.94;;;16.71
76381;BMP280;65202;52.520;10.528;2023-04-06T09:50:19;101309.19;;;15.49
76381;BMP280;65202;52.520;10.528;2023-04-06T09:52:48;101305.75;;;15.00
76381;BMP280;65202;52.520;10.528;2023-04-06T09:55:47;101299.75;;;15.20
76381;BMP280;65202;52.520;10.528;2023-04-06T09:58:19;101291.16;;;16.42
76381;BMP280;65202;52.520;10.528;2023-04-06T10:01:05;101282.84;;;16.46
76381;BMP280;65202;52.520;10.528;2023-04-06T10:03:56;101288.09;;;16.26
76381;BMP280;65202;52.520;10.528;2023-04-06T10:06:33;101290.81;;;15.53
76381;BMP280;65202;52.520;10.528;2023-04-06T10:09:04;101296.75;;;15.79
76381;BMP280;65202;52.520;10.528;2023-04-06T10:11:34;101277.97;;;16.24
76381;BMP280;65202;52.520;10.528;2023-04-06T10:14:02;101302.53;;;15.51
76381;BMP280;65202;52.520;10.528;2023-04-06T10:16:30;101293.16;;;15.47
76381;BMP280;65202;52.520;10.528;2023-04-06T10:19:06;101293.22;;;15.75
76381;BMP280;65202;52.520;10.528;2023-04-06T10:21:44;101272.53;;;16.12
76381;BMP280;65202;52.520;10.528;2023-04-06T10:24:15;101277.59;;;15.86
76381;BMP280;65202;52.520;10.528;2023-04-06T10:26:56;101276.22;;;16.80
76381;BMP280;65202;52.520;10.528;2023-04-06T10:29:25;101278.84;;;15.22
76381;BMP280;65202;52.520;10.528;2023-04-06T10:31:52;101279.25;;;15.34
76381;BMP280;65202;52.520;10.528;2023-04-06T10:34:19;101272.13;;;15.21
76381;BMP280;65202;52.520;10.528;2023-04-06T10:36:46;101266.72;;;16.15
76381;BMP280;65202;52.520;10.528;2023-04-06T10:39:13;101276.59;;;15.07
76381;BMP280;65202;52.520;10.528;2023-04-06T10:41:43;101270.53;;;15.50
76381;BMP280;65202;52.520;10.528;2023-04-06T10:44:22;101275.31;;;14.71
76381;BMP280;65202;52.520;10.528;2023-04-06T10:46:55;101262.41;;;16.12
76381;BMP280;65202;52.520;10.528;2023-04-06T10:49:24;101279.38;;;14.67
76381;BMP280;65202;52.520;10.528;2023-04-06T10:51:54;101261.19;;;15.47
76381;BMP280;65202;52.520;10.528;2023-04-06T10:54:24;101261.09;;;15.44
76381;BMP280;65202;52.520;10.528;2023-04-06T10:56:53;101255.03;;;15.64
76381;BMP280;65202;52.520;10.528;2023-04-06T10:59:21;101256.88;;;14.50
76381;BMP280;65202;52.520;10.528;2023-04-06T11:01:49;101253.63;;;14.99
76381;BMP280;65202;52.520;10.528;2023-04-06T11:04:17;101251.38;;;14.83
76381;BMP280;65202;52.520;10.528;2023-04-06T11:06:49;101246.81;;;15.45
76381;BMP280;65202;52.520;10.528;2023-04-06T11:09:27;101235.16;;;16.29
76381;BMP280;65202;52.520;10.528;2023-04-06T11:11:56;101246.31;;;15.30
76381;BMP280;65202;52.520;10.528;2023-04-06T11:14:24;101233.91;;;16.44
76381;BMP280;65202;52.520;10.528;2023-04-06T11:16:51;101229.94;;;16.52
76381;BMP280;65202;52.520;10.528;2023-04-06T11:19:19;101230.88;;;16.86
76381;BMP280;65202;52.520;10.528;2023-04-06T11:21:47;101240.53;;;15.59
76381;BMP280;65202;52.520;10.528;2023-04-06T11:24:22;101242.31;;;15.12
76381;BMP280;65202;52.520;10.528;2023-04-06T11:26:57;101243.72;;;15.05
76381;BMP280;65202;52.520;10.528;2023-04-06T11:29:29;101225.34;;;15.83
76381;BMP280;65202;52.520;10.528;2023-04-06T11:31:59;101226.50;;;16.50
76381;BMP280;65202;52.520;10.528;2023-04-06T11:34:33;101225.34;;;16.11
76381;BMP280;65202;52.520;10.528;2023-04-06T11:37:09;101230.38;;;16.67
76381;BMP280;65202;52.520;10.528;2023-04-06T11:39:48;101235.16;;;16.58
76381;BMP280;65202;52.520;10.528;2023-04-06T11:42:25;101220.16;;;16.64
76381;BMP280;65202;52.520;10.528;2023-04-06T11:44:57;101220.88;;;16.29
76381;BMP280;65202;52.520;10.528;2023-04-06T11:47:36;101220.38;;;15.86
76381;BMP280;65202;52.520;10.528;2023-04-06T11:50:11;101226.81;;;15.51
76381;BMP280;65202;52.520;10.528;2023-04-06T11:52:41;101217.66;;;16.65
76381;BMP280;65202;52.520;10.528;2023-04-06T11:55:18;101234.59;;;15.57
76381;BMP280;65202;52.520;10.528;2023-04-06T11:57:45;101223.59;;;15.30
76381;BMP280;65202;52.520;10.528;2023-04-06T12:00:13;101221.69;;;15.48
76381;BMP280;65202;52.520;10.528;2023-04-06T12:02:45;101214.31;;;16.08
76381;BMP280;65202;52.520;10.528;2023-04-06T12:05:14;101215.34;;;15.60
76381;BMP280;65202;52.520;10.528;2023-04-06T12:07:41;101221.25;;;15.87
76381;BMP280;65202;52.520;10.528;2023-04-06T12:10:09;101208.31;;;16.04
76381;BMP280;65202;52.520;10.528;2023-04-06T12:12:36;101219.75;;;15.41
76381;BMP280;65202;52.520;10.528;2023-04-06T12:15:04;101205.66;;;15.74
76381;BMP280;65202;52.520;10.528;2023-04-06T12:17:32;101199.84;;;16.04
76381;BMP280;65202;52.520;10.528;2023-04-06T12:19:59;101207.00;;;15.63
76381;BMP280;65202;52.520;10.528;2023-04-06T12:22:35;101211.00;;;15.82
76381;BMP280;65202;52.520;10.528;2023-04-06T12:25:03;101199.47;;;15.90
76381;BMP280;65202;52.520;10.528;2023-04-06T12:27:31;101202.16;;;15.96
76381;BMP280;65202;52.520;10.528;2023-04-06T12:29:58;101199.50;;;16.20
76381;BMP280;65202;52.520;10.528;2023-04-06T12:32:25;101191.88;;;16.18
76381;BMP280;65202;52.520;10.528;2023-04-06T12:34:53;101213.88;;;15.40
76381;BMP280;65202;52.520;10.528;2023-04-06T12:37:20;101202.69;;;15.86
76381;BMP280;65202;52.520;10.528;2023-04-06T12:39:47;101201.09;;;15.88
76381;BMP280;65202;52.520;10.528;2023-04-06T12:42:15;101196.66;;;16.68
76381;BMP280;65202;52.520;10.528;2023-04-06T12:44:42;101193.00;;;15.72
76381;BMP280;65202;52.520;10.528;2023-04-06T12:47:10;101187.03;;;16.55
76381;BMP280;65202;52.520;10.528;2023-04-06T12:49:38;101196.03;;;15.88
76381;BMP280;65202;52.520;10.528;2023-04-06T12:52:05;101205.78;;;15.24
76381;BMP280;65202;52.520;10.528;2023-04-06T12:54:32;101188.78;;;14.70
76381;BMP280;65202;52.520;10.528;2023-04-06T12:56:59;101174.66;;;16.33
76381;BMP280;65202;52.520;10.528;2023-04-06T12:59:27;101181.72;;;15.89
76381;BMP280;65202;52.520;10.528;2023-04-06T13:02:01;101168.22;;;16.16
76381;BMP280;65202;52.520;10.528;2023-04-06T13:04:30;101182.56;;;15.88
76381;BMP280;65202;52.520;10.528;2023-04-06T13:06:57;101187.78;;;14.67
76381;BMP280;65202;52.520;10.528;2023-04-06T13:09:24;101171.75;;;15.38
76381;BMP280;65202;52.520;10.528;2023-04-06T13:11:51;101167.16;;;15.79
76381;BMP280;65202;52.520;10.528;2023-04-06T13:14:18;101166.06;;;15.45
76381;BMP280;65202;52.520;10.528;2023-04-06T13:16:46;101170.31;;;15.74
76381;BMP280;65202;52.520;10.528;2023-04-06T13:19:13;101148.84;;;15.87
76381;BMP280;65202;52.520;10.528;2023-04-06T13:21:40;101149.03;;;16.23
76381;BMP280;65202;52.520;10.528;2023-04-06T13:24:07;101170.06;;;15.38
76381;BMP280;65202;52.520;10.528;2023-04-06T13:26:35;101167.50;;;14.87
76381;BMP280;65202;52.520;10.528;2023-04-06T13:29:03;101159.97;;;15.38
76381;BMP280;65202;52.520;10.528;2023-04-06T13:31:30;101166.56;;;15.10
76381;BMP280;65202;52.520;10.528;2023-04-06T13:33:57;101145.31;;;15.27
76381;BMP280;65202;52.520;10.528;2023-04-06T13:36:25;101143.09;;;15.64
76381;BMP280;65202;52.520;10.528;2023-04-06T13:38:53;101145.88;;;15.45
76381;BMP280;65202;52.520;10.528;2023-04-06T13:41:23;101129.31;;;15.80
76381;BMP280;65202;52.520;10.528;2023-04-06T13:43:52;101143.25;;;15.68
76381;BMP280;65202;52.520;10.528;2023-04-06T13:46:20;101124.38;;;15.85
76381;BMP280;65202;52.520;10.528;2023-04-06T13:48:47;101131.19;;;15.60
76381;BMP280;65202;52.520;10.528;2023-04-06T13:51:15;101123.78;;;15.64
76381;BMP280;65202;52.520;10.528;2023-04-06T13:53:42;101120.97;;;16.12
76381;BMP280;65202;52.520;10.528;2023-04-06T13:56:09;101127.63;;;16.10